createdAt,value
2016-06-16T00:00:38.162Z,996.24
2016-06-16T00:01:38.150Z,996.27
2016-06-16T00:02:38.122Z,996.24
2016-06-16T00:03:38.110Z,996.28
2016-06-16T00:04:38.096Z,996.24
2016-06-16T00:05:38.083Z,996.26
2016-06-16T00:06:38.072Z,996.21
2016-06-16T00:07:38.059Z,996.18
2016-06-16T00:08:38.046Z,996.2
2016-06-16T00:09:38.034Z,996.18
2016-06-16T00:10:38.021Z,996.19
2016-06-16T00:11:38.009Z,996.21
2016-06-16T00:12:37.996Z,996.2
2016-06-16T00:13:37.984Z,996.17
2016-06-16T00:14:37.971Z,996.17
2016-06-16T00:15:37.958Z,996.18
2016-06-16T00:16:37.931Z,996.14
2016-06-16T00:17:37.918Z,996.22
2016-06-16T00:18:37.905Z,996.18
2016-06-16T00:19:37.893Z,996.19
2016-06-16T00:20:37.880Z,996.17
2016-06-16T00:21:37.868Z,996.13
2016-06-16T00:22:37.964Z,996.19
2016-06-16T00:23:37.842Z,996.2
2016-06-16T00:24:37.830Z,996.17
2016-06-16T00:25:37.973Z,996.21
2016-06-16T00:26:37.805Z,996.25
2016-06-16T00:27:37.792Z,996.24
2016-06-16T00:28:37.795Z,996.27
2016-06-16T00:29:37.751Z,996.23
2016-06-16T00:30:37.849Z,996.23
2016-06-16T00:31:37.727Z,996.27
2016-06-16T00:32:37.730Z,996.27
2016-06-16T00:33:37.701Z,996.28
2016-06-16T00:34:37.689Z,996.25
2016-06-16T00:35:37.676Z,996.27
2016-06-16T00:36:37.664Z,996.24
2016-06-16T00:37:37.651Z,996.25
2016-06-16T00:38:37.842Z,996.29
2016-06-16T00:39:37.626Z,996.28
2016-06-16T00:40:37.613Z,996.27
2016-06-16T00:41:37.602Z,996.33
2016-06-16T00:42:37.588Z,996.31
2016-06-16T00:43:37.560Z,996.28
2016-06-16T00:44:37.548Z,996.29
2016-06-16T00:45:37.535Z,996.23
2016-06-16T00:46:38.022Z,996.27
2016-06-16T00:47:37.510Z,996.24
2016-06-16T00:48:37.498Z,996.23
2016-06-16T00:49:37.485Z,996.24
2016-06-16T00:50:37.472Z,996.19
2016-06-16T00:51:37.460Z,996.23
2016-06-16T00:52:37.447Z,996.2
2016-06-16T00:53:37.434Z,996.17
2016-06-16T00:54:37.875Z,996.17
2016-06-16T00:55:37.973Z,996.15
2016-06-16T00:56:37.397Z,996.21
2016-06-16T00:57:37.385Z,996.24
2016-06-16T00:58:37.357Z,996.24
2016-06-16T00:59:37.344Z,996.22
2016-06-16T01:00:37.330Z,996.24
2016-06-16T01:01:37.334Z,996.23
2016-06-16T01:02:37.962Z,996.25
2016-06-16T01:03:37.294Z,996.21
2016-06-16T01:04:37.281Z,996.23
2016-06-16T01:05:37.284Z,996.25
2016-06-16T01:06:37.256Z,996.25
2016-06-16T01:07:37.243Z,996.21
2016-06-16T01:08:37.231Z,996.23
2016-06-16T01:09:37.218Z,996.25
2016-06-16T01:10:37.909Z,996.26
2016-06-16T01:11:37.178Z,996.27
2016-06-16T01:12:37.181Z,996.24
2016-06-16T01:13:37.152Z,996.3
2016-06-16T01:14:37.156Z,996.27
2016-06-16T01:15:37.206Z,996.28
2016-06-16T01:16:37.115Z,996.17
2016-06-16T01:17:37.102Z,996.23
2016-06-16T01:18:38.043Z,996.18
2016-06-16T01:19:37.077Z,996.13
2016-06-16T01:20:37.065Z,996.15
2016-06-16T01:21:37.052Z,996.1
2016-06-16T01:22:37.039Z,996.12
2016-06-16T01:23:37.026Z,996.11
2016-06-16T01:24:37.014Z,996.08
2016-06-16T01:25:37.596Z,996.09
2016-06-16T01:26:37.193Z,996.07
2016-06-16T01:27:36.977Z,996.08
2016-06-16T01:28:36.948Z,996.07
2016-06-16T01:29:36.952Z,996.09
2016-06-16T01:30:36.923Z,996.13
2016-06-16T01:31:36.911Z,996.11
2016-06-16T01:32:36.898Z,996.1
2016-06-16T01:33:36.886Z,996.09
2016-06-16T01:34:37.232Z,996.09
2016-06-16T01:35:36.860Z,996.09
2016-06-16T01:36:36.848Z,996.07
2016-06-16T01:37:36.835Z,996.07
2016-06-16T01:38:36.823Z,996.11
2016-06-16T01:39:36.810Z,996.11
2016-06-16T01:40:36.875Z,996.15
2016-06-16T01:41:36.786Z,996.11
2016-06-16T01:42:38.117Z,996.16
2016-06-16T01:43:36.745Z,996.14
2016-06-16T01:44:36.732Z,996.15
2016-06-16T01:45:36.719Z,996.17
2016-06-16T01:46:36.707Z,996.15
2016-06-16T01:47:36.694Z,996.19
2016-06-16T01:48:36.682Z,996.18
2016-06-16T01:49:36.670Z,996.16
2016-06-16T01:50:36.656Z,996.15
2016-06-16T01:51:36.644Z,996.16
2016-06-16T01:52:36.632Z,996.11
2016-06-16T01:53:36.619Z,996.16
2016-06-16T01:54:36.606Z,996.13
2016-06-16T01:55:36.734Z,996.15
2016-06-16T01:56:36.582Z,996.1
2016-06-16T01:57:36.553Z,996.09
2016-06-16T01:58:36.541Z,996.08
2016-06-16T01:59:36.528Z,996.1
2016-06-16T02:00:36.515Z,996.08
2016-06-16T02:01:36.503Z,996.09
2016-06-16T02:02:36.491Z,996.14
2016-06-16T02:03:36.478Z,996.07
2016-06-16T02:04:36.466Z,996.14
2016-06-16T02:05:36.452Z,996.11
2016-06-16T02:06:36.441Z,996.13
2016-06-16T02:07:36.427Z,996.15
2016-06-16T02:08:36.415Z,996.13
2016-06-16T02:09:36.403Z,996.14
2016-06-16T02:10:36.390Z,996.17
2016-06-16T02:11:37.003Z,996.17
2016-06-16T02:12:36.365Z,996.15
2016-06-16T02:13:36.352Z,996.11
2016-06-16T02:14:36.324Z,996.14
2016-06-16T02:15:36.311Z,996.11
2016-06-16T02:16:36.315Z,996.15
2016-06-16T02:17:36.286Z,996.16
2016-06-16T02:18:36.274Z,996.18
2016-06-16T02:19:36.262Z,996.16
2016-06-16T02:20:36.249Z,996.26
2016-06-16T02:21:36.236Z,996.18
2016-06-16T02:22:36.224Z,996.19
2016-06-16T02:23:36.211Z,996.19
2016-06-16T02:24:36.199Z,996.18
2016-06-16T02:25:36.186Z,996.19
2016-06-16T02:26:36.174Z,996.24
2016-06-16T02:27:36.161Z,996.21
2016-06-16T02:28:36.149Z,996.18
2016-06-16T02:29:36.120Z,996.18
2016-06-16T02:30:36.123Z,996.2
2016-06-16T02:31:36.095Z,996.21
2016-06-16T02:32:36.083Z,996.2
2016-06-16T02:33:36.070Z,996.19
2016-06-16T02:34:36.058Z,996.17
2016-06-16T02:35:36.045Z,996.17
2016-06-16T02:36:36.048Z,996.18
2016-06-16T02:37:36.020Z,996.21
2016-06-16T02:38:36.007Z,996.19
2016-06-16T02:39:35.995Z,996.19
2016-06-16T02:40:35.982Z,996.2
2016-06-16T02:41:35.970Z,996.18
2016-06-16T02:42:35.957Z,996.18
2016-06-16T02:43:35.944Z,996.17
2016-06-16T02:44:35.917Z,996.18
2016-06-16T02:45:35.904Z,996.22
2016-06-16T02:46:35.891Z,996.15
2016-06-16T02:47:35.878Z,996.17
2016-06-16T02:48:35.867Z,996.19
2016-06-16T02:49:35.854Z,996.2
2016-06-16T02:50:35.840Z,996.26
2016-06-16T02:51:35.844Z,996.26
2016-06-16T02:52:35.816Z,996.27
2016-06-16T02:53:35.803Z,996.29
2016-06-16T02:54:35.791Z,996.33
2016-06-16T02:55:35.779Z,996.29
2016-06-16T02:56:35.766Z,996.28
2016-06-16T02:57:35.753Z,996.3
2016-06-16T02:58:35.741Z,996.29
2016-06-16T02:59:35.713Z,996.3
2016-06-16T03:00:35.700Z,996.27
2016-06-16T03:01:35.703Z,996.29
2016-06-16T03:02:35.675Z,996.28
2016-06-16T03:03:35.663Z,996.31
2016-06-16T03:04:35.650Z,996.32
2016-06-16T03:05:35.637Z,996.25
2016-06-16T03:06:35.625Z,996.25
2016-06-16T03:07:35.613Z,996.3
2016-06-16T03:08:35.599Z,996.29
2016-06-16T03:09:35.587Z,996.31
2016-06-16T03:10:35.574Z,996.34
2016-06-16T03:11:35.563Z,996.32
2016-06-16T03:12:35.550Z,996.34
2016-06-16T03:13:35.521Z,996.35
2016-06-16T03:14:35.524Z,996.34
2016-06-16T03:15:35.512Z,996.36
2016-06-16T03:16:35.484Z,996.37
2016-06-16T03:17:35.471Z,996.36
2016-06-16T03:18:35.459Z,996.33
2016-06-16T03:19:35.446Z,996.38
2016-06-16T03:20:35.433Z,996.37
2016-06-16T03:21:35.421Z,996.37
2016-06-16T03:22:35.408Z,996.4
2016-06-16T03:23:35.395Z,996.39
2016-06-16T03:24:35.384Z,996.39
2016-06-16T03:25:35.370Z,996.4
2016-06-16T03:26:35.342Z,996.38
2016-06-16T03:27:35.346Z,996.42
2016-06-16T03:28:35.318Z,996.41
2016-06-16T03:29:35.320Z,996.37
2016-06-16T03:30:35.292Z,996.35
2016-06-16T03:31:35.280Z,996.34
2016-06-16T03:32:35.267Z,996.37
2016-06-16T03:33:35.255Z,996.38
2016-06-16T03:34:35.242Z,996.4
2016-06-16T03:35:35.229Z,996.4
2016-06-16T03:36:35.218Z,996.42
2016-06-16T03:37:35.204Z,996.39
2016-06-16T03:38:35.191Z,996.44
2016-06-16T03:39:35.179Z,996.39
2016-06-16T03:40:35.166Z,996.36
2016-06-16T03:41:35.139Z,996.39
2016-06-16T03:42:35.141Z,996.4
2016-06-16T03:43:35.113Z,996.4
2016-06-16T03:44:35.101Z,996.42
2016-06-16T03:45:35.087Z,996.37
2016-06-16T03:46:35.076Z,996.36
2016-06-16T03:47:35.063Z,996.34
2016-06-16T03:48:35.051Z,996.37
2016-06-16T03:49:35.038Z,996.32
2016-06-16T03:50:35.026Z,996.3
2016-06-16T03:51:35.013Z,996.31
2016-06-16T03:52:35.000Z,996.34
2016-06-16T03:53:34.987Z,996.31
2016-06-16T03:54:34.991Z,996.31
2016-06-16T03:55:34.962Z,996.31
2016-06-16T03:56:34.951Z,996.3
2016-06-16T03:57:34.922Z,996.31
2016-06-16T03:58:34.910Z,996.31
2016-06-16T03:59:34.897Z,996.3
2016-06-16T04:00:34.884Z,996.29
2016-06-16T04:01:34.872Z,996.26
2016-06-16T04:02:34.875Z,996.32
2016-06-16T04:03:34.848Z,996.26
2016-06-16T04:04:34.834Z,996.28
2016-06-16T04:05:34.821Z,996.31
2016-06-16T04:06:34.809Z,996.28
2016-06-16T04:07:34.797Z,996.29
2016-06-16T04:08:34.783Z,996.27
2016-06-16T04:09:34.771Z,996.3
2016-06-16T04:10:34.759Z,996.31
2016-06-16T04:11:34.731Z,996.27
2016-06-16T04:12:34.718Z,996.29
2016-06-16T04:13:34.705Z,996.28
2016-06-16T04:14:34.693Z,996.29
2016-06-16T04:15:34.680Z,996.31
2016-06-16T04:16:34.687Z,996.31
2016-06-16T04:17:34.714Z,996.29
2016-06-16T04:18:34.741Z,996.33
2016-06-16T04:19:34.768Z,996.31
2016-06-16T04:20:34.795Z,996.33
2016-06-16T04:21:34.812Z,996.33
2016-06-16T04:22:34.813Z,996.39
2016-06-16T04:23:34.814Z,996.37
2016-06-16T04:24:34.817Z,996.44
2016-06-16T04:25:34.803Z,996.39
2016-06-16T04:26:34.816Z,996.43
2016-06-16T04:27:34.808Z,996.44
2016-06-16T04:28:34.785Z,996.51
2016-06-16T04:29:34.777Z,996.47
2016-06-16T04:30:34.769Z,996.49
2016-06-16T04:31:34.761Z,996.49
2016-06-16T04:32:34.750Z,996.5
2016-06-16T04:33:34.740Z,996.52
2016-06-16T04:34:34.729Z,996.49
2016-06-16T04:35:34.717Z,996.52
2016-06-16T04:36:34.707Z,996.53
2016-06-16T04:37:34.695Z,996.55
2016-06-16T04:38:34.683Z,996.6
2016-06-16T04:39:34.672Z,996.59
2016-06-16T04:40:34.645Z,996.65
2016-06-16T04:41:35.257Z,996.68
2016-06-16T04:42:34.620Z,996.72
2016-06-16T04:43:34.608Z,996.74
2016-06-16T04:44:34.596Z,996.74
2016-06-16T04:45:34.583Z,996.74
2016-06-16T04:46:34.571Z,996.76
2016-06-16T04:47:34.558Z,996.83
2016-06-16T04:48:34.547Z,996.78
2016-06-16T04:49:34.533Z,996.8
2016-06-16T04:50:34.521Z,996.86
2016-06-16T04:51:34.509Z,996.89
2016-06-16T04:52:34.496Z,996.89
2016-06-16T04:53:34.530Z,997.01
2016-06-16T04:54:34.455Z,997.07
2016-06-16T04:55:34.458Z,997.11
2016-06-16T04:56:34.430Z,997.13
2016-06-16T04:57:34.418Z,997.09
2016-06-16T04:58:34.405Z,997.14
2016-06-16T04:59:34.392Z,997.15
2016-06-16T05:00:34.395Z,997.13
2016-06-16T05:01:34.570Z,997.21
2016-06-16T05:02:34.354Z,997.21
2016-06-16T05:03:34.343Z,997.16
2016-06-16T05:04:34.330Z,997.19
2016-06-16T05:05:34.316Z,997.21
2016-06-16T05:06:34.305Z,997.22
2016-06-16T05:07:34.276Z,997.19
2016-06-16T05:08:34.279Z,997.27
2016-06-16T05:09:34.564Z,997.23
2016-06-16T05:10:34.239Z,997.32
2016-06-16T05:11:34.242Z,997.29
2016-06-16T05:12:34.230Z,997.28
2016-06-16T05:13:34.202Z,997.27
2016-06-16T05:14:34.189Z,997.21
2016-06-16T05:15:34.176Z,997.24
2016-06-16T05:16:34.163Z,997.24
2016-06-16T05:17:34.604Z,997.28
2016-06-16T05:18:34.139Z,997.27
2016-06-16T05:19:34.126Z,997.22
2016-06-16T05:20:34.113Z,997.17
2016-06-16T05:21:34.101Z,997.19
2016-06-16T05:22:34.088Z,997.13
2016-06-16T05:23:34.060Z,997.16
2016-06-16T05:24:34.047Z,997.14
2016-06-16T05:25:34.597Z,997.2
2016-06-16T05:26:34.242Z,997.18
2016-06-16T05:27:34.010Z,997.17
2016-06-16T05:28:33.998Z,997.2
2016-06-16T05:29:33.984Z,997.22
2016-06-16T05:30:33.971Z,997.23
2016-06-16T05:31:33.960Z,997.16
2016-06-16T05:32:33.947Z,997.2
2016-06-16T05:33:34.653Z,997.2
2016-06-16T05:34:33.922Z,997.25
2016-06-16T05:35:33.909Z,997.23
2016-06-16T05:36:33.897Z,997.2
2016-06-16T05:37:33.884Z,997.19
2016-06-16T05:38:33.856Z,997.19
2016-06-16T05:39:33.843Z,997.19
2016-06-16T05:40:33.831Z,997.14
2016-06-16T05:41:34.209Z,997.13
2016-06-16T05:42:33.806Z,997.14
2016-06-16T05:43:33.794Z,997.14
2016-06-16T05:44:33.781Z,997.11
2016-06-16T05:45:33.768Z,997.14
2016-06-16T05:46:33.756Z,997.12
2016-06-16T05:47:33.742Z,997.15
2016-06-16T05:48:33.731Z,997.17
2016-06-16T05:49:33.905Z,997.18
2016-06-16T05:50:33.705Z,997.12
2016-06-16T05:51:33.693Z,997.13
2016-06-16T05:52:33.680Z,997.13
2016-06-16T05:53:33.652Z,997.13
2016-06-16T05:54:33.640Z,997.1
2016-06-16T05:55:33.628Z,997.05
2016-06-16T05:56:33.631Z,997.07
2016-06-16T05:57:33.899Z,997.05
2016-06-16T05:58:33.590Z,997.02
2016-06-16T05:59:33.576Z,997.04
2016-06-16T06:00:33.563Z,997.05
2016-06-16T06:01:33.552Z,997.04
2016-06-16T06:02:33.539Z,997.07
2016-06-16T06:03:33.527Z,997.06
2016-06-16T06:04:33.514Z,997.1
2016-06-16T06:05:33.939Z,997.06
2016-06-16T06:06:33.489Z,997.06
2016-06-16T06:07:33.477Z,997.07
2016-06-16T06:08:33.449Z,997.09
2016-06-16T06:09:33.436Z,997.13
2016-06-16T06:10:33.424Z,997.14
2016-06-16T06:11:33.911Z,997.1
2016-06-16T06:12:34.085Z,997.14
2016-06-16T06:13:33.385Z,997.16
2016-06-16T06:14:33.373Z,997.16
2016-06-16T06:15:33.360Z,997.15
2016-06-16T06:16:33.348Z,997.19
2016-06-16T06:17:33.335Z,997.16
2016-06-16T06:18:33.323Z,997.18
2016-06-16T06:19:33.311Z,997.19
2016-06-16T06:20:33.282Z,997.22
2016-06-16T06:21:33.270Z,997.18
2016-06-16T06:22:33.256Z,997.24
2016-06-16T06:23:33.245Z,997.21
2016-06-16T06:24:33.231Z,997.21
2016-06-16T06:25:33.235Z,997.18
2016-06-16T06:26:33.207Z,997.2
2016-06-16T06:27:33.694Z,997.22
2016-06-16T06:28:33.182Z,997.18
2016-06-16T06:29:33.169Z,997.19
2016-06-16T06:30:33.156Z,997.26
2016-06-16T06:31:33.144Z,997.27
2016-06-16T06:32:33.131Z,997.26
2016-06-16T06:33:33.103Z,997.27
2016-06-16T06:34:33.091Z,997.3
2016-06-16T06:35:33.094Z,997.32
2016-06-16T06:36:33.066Z,997.27
2016-06-16T06:37:33.068Z,997.23
2016-06-16T06:38:33.055Z,997.29
2016-06-16T06:39:33.028Z,997.31
2016-06-16T06:40:33.016Z,997.29
2016-06-16T06:41:33.003Z,997.36
2016-06-16T06:42:33.381Z,997.36
2016-06-16T06:43:32.978Z,997.38
2016-06-16T06:44:32.965Z,997.35
2016-06-16T06:45:32.952Z,997.38
2016-06-16T06:46:32.940Z,997.4
2016-06-16T06:47:32.927Z,997.4
2016-06-16T06:48:32.900Z,997.39
2016-06-16T06:49:32.903Z,997.39
2016-06-16T06:50:32.875Z,997.45
2016-06-16T06:51:32.861Z,997.4
2016-06-16T06:52:32.849Z,997.41
2016-06-16T06:53:32.836Z,997.38
2016-06-16T06:54:32.824Z,997.38
2016-06-16T06:55:32.827Z,997.42
2016-06-16T06:56:32.799Z,997.41
2016-06-16T06:57:32.896Z,997.37
2016-06-16T06:58:32.774Z,997.39
2016-06-16T06:59:32.761Z,997.41
2016-06-16T07:00:32.748Z,997.43
2016-06-16T07:01:32.720Z,997.4
2016-06-16T07:02:32.709Z,997.45
2016-06-16T07:03:32.696Z,997.42
2016-06-16T07:04:32.682Z,997.43
2016-06-16T07:05:32.670Z,997.45
2016-06-16T07:06:32.658Z,997.45
2016-06-16T07:07:32.645Z,997.37
2016-06-16T07:08:32.633Z,997.37
2016-06-16T07:09:32.620Z,997.32
2016-06-16T07:10:32.608Z,997.32
2016-06-16T07:11:32.595Z,997.25
2016-06-16T07:12:32.567Z,997.25
2016-06-16T07:13:32.554Z,997.26
2016-06-16T07:14:32.541Z,997.27
2016-06-16T07:15:32.530Z,997.27
2016-06-16T07:16:32.517Z,997.24
2016-06-16T07:17:32.505Z,997.23
2016-06-16T07:18:32.491Z,997.25
2016-06-16T07:19:32.479Z,997.22
2016-06-16T07:20:32.467Z,997.24
2016-06-16T07:21:32.454Z,997.19
2016-06-16T07:22:32.441Z,997.25
2016-06-16T07:23:32.413Z,997.19
2016-06-16T07:24:32.417Z,997.2
2016-06-16T07:25:32.388Z,997.18
2016-06-16T07:26:32.391Z,997.18
2016-06-16T07:27:32.363Z,997.22
2016-06-16T07:28:32.366Z,997.22
2016-06-16T07:29:32.338Z,997.18
2016-06-16T07:30:32.356Z,997.15
2016-06-16T07:31:32.312Z,997.12
2016-06-16T07:32:32.300Z,997.15
2016-06-16T07:33:32.288Z,997.09
2016-06-16T07:34:32.260Z,997.13
2016-06-16T07:48:37.661Z,997.07
2016-06-16T07:48:39.146Z,997.1
2016-06-16T07:49:39.133Z,997.12
2016-06-16T07:50:39.824Z,997.15
2016-06-16T07:51:39.092Z,997.22
2016-06-16T07:52:39.095Z,997.22
2016-06-16T07:53:39.067Z,997.2
2016-06-16T07:54:39.055Z,997.19
2016-06-16T07:55:39.043Z,997.18
2016-06-16T07:56:39.046Z,997.18
2016-06-16T07:57:39.017Z,997.14
2016-06-16T07:58:39.051Z,997.14
2016-06-16T07:59:38.992Z,997.15
2016-06-16T08:00:38.980Z,997.13
2016-06-16T08:01:38.967Z,997.11
2016-06-16T08:02:38.954Z,997.17
2016-06-16T08:03:38.942Z,997.14
2016-06-16T08:04:38.914Z,997.12
2016-06-16T08:05:38.901Z,997.19
2016-06-16T08:06:39.092Z,997.16
2016-06-16T08:07:38.892Z,997.13
2016-06-16T08:08:38.864Z,997.16
2016-06-16T08:09:38.851Z,997.1
2016-06-16T08:10:38.839Z,997.12
2016-06-16T08:11:38.825Z,997.1
2016-06-16T08:12:38.814Z,997.14
2016-06-16T08:13:38.785Z,997.16
2016-06-16T08:14:39.131Z,997.1
2016-06-16T08:15:38.760Z,997.09
2016-06-16T08:16:38.747Z,997.12
2016-06-16T08:17:38.750Z,997.08
2016-06-16T08:18:38.723Z,997.11
2016-06-16T08:19:38.710Z,997.08
2016-06-16T08:20:38.697Z,997.05
2016-06-16T08:21:38.685Z,997.03
2016-06-16T08:22:39.125Z,997.04
2016-06-16T08:23:38.660Z,997.04
2016-06-16T08:24:38.646Z,997.06
2016-06-16T08:25:38.634Z,997.04
2016-06-16T08:26:38.621Z,997.02
2016-06-16T08:27:38.610Z,997.05
2016-06-16T08:28:38.597Z,997
2016-06-16T08:29:38.569Z,997.02
2016-06-16T08:30:38.572Z,996.94
2016-06-16T08:31:38.543Z,996.98
2016-06-16T08:32:38.531Z,996.97
2016-06-16T08:33:38.518Z,996.95
2016-06-16T08:34:38.507Z,996.98
2016-06-16T08:35:38.494Z,996.93
2016-06-16T08:36:38.481Z,996.95
2016-06-16T08:37:38.468Z,996.98
2016-06-16T08:38:38.456Z,996.94
2016-06-16T08:39:38.443Z,996.98
2016-06-16T08:40:38.431Z,997.03
2016-06-16T08:41:38.418Z,997.04
2016-06-16T08:42:38.391Z,997.07
2016-06-16T08:43:38.378Z,997.11
2016-06-16T08:44:38.366Z,997.09
2016-06-16T08:45:38.369Z,997.13
2016-06-16T08:46:38.340Z,997.13
2016-06-16T08:47:38.327Z,997.15
2016-06-16T08:48:23.706Z,997.45
2016-06-16T08:49:23.881Z,997.47
2016-06-16T08:50:23.682Z,997.49
2016-06-16T08:51:23.668Z,997.46
2016-06-16T08:52:23.655Z,997.47
2016-06-16T08:53:23.628Z,997.46
2016-06-16T08:54:23.631Z,997.46
2016-06-16T08:55:23.603Z,997.47
2016-06-16T08:56:23.605Z,997.45
2016-06-16T08:57:23.921Z,997.44
2016-06-16T08:58:23.564Z,997.43
2016-06-16T08:59:23.552Z,997.45
2016-06-16T09:00:23.540Z,997.45
2016-06-16T09:01:23.527Z,997.44
2016-06-16T09:02:23.514Z,997.43
2016-06-16T09:03:23.502Z,997.4
2016-06-16T09:04:23.489Z,997.42
2016-06-16T09:05:23.915Z,997.43
2016-06-16T09:06:23.464Z,997.43
2016-06-16T09:07:23.451Z,997.42
2016-06-16T09:08:23.423Z,997.35
2016-06-16T09:09:23.411Z,997.31
2016-06-16T09:10:23.399Z,997.3
2016-06-16T09:11:23.386Z,997.28
2016-06-16T09:12:23.373Z,997.29
2016-06-16T09:13:23.361Z,997.26
2016-06-16T09:14:23.348Z,997.26
2016-06-16T09:15:23.336Z,997.23
2016-06-16T09:16:23.323Z,997.25
2016-06-16T09:17:23.310Z,997.34
2016-06-16T09:18:23.298Z,997.29
2016-06-16T09:19:23.271Z,997.29
2016-06-16T09:20:23.273Z,997.31
2016-06-16T09:21:23.245Z,997.35
2016-06-16T09:22:23.232Z,997.38
2016-06-16T09:23:23.219Z,997.33
2016-06-16T09:24:23.223Z,997.32
2016-06-16T09:25:23.195Z,997.36
2016-06-16T09:26:23.182Z,997.38
2016-06-16T09:27:23.170Z,997.35
2016-06-16T09:28:23.173Z,997.35
2016-06-16T09:29:23.144Z,997.38
2016-06-16T09:30:23.132Z,997.37
2016-06-16T09:31:23.119Z,997.34
2016-06-16T09:32:23.106Z,997.35
2016-06-16T09:33:23.095Z,997.36
2016-06-16T09:34:23.066Z,997.37
2016-06-16T09:35:23.054Z,997.36
2016-06-16T09:36:23.057Z,997.33
2016-06-16T09:37:23.029Z,997.32
2016-06-16T09:38:23.015Z,997.32
2016-06-16T09:39:23.003Z,997.32
2016-06-16T09:40:22.991Z,997.34
2016-06-16T09:41:22.978Z,997.36
2016-06-16T09:42:22.966Z,997.43
2016-06-16T09:43:22.969Z,997.36
2016-06-16T09:44:22.940Z,997.38
2016-06-16T09:45:22.928Z,997.44
2016-06-16T09:46:22.916Z,997.38
2016-06-16T09:47:22.902Z,997.36
2016-06-16T09:48:22.874Z,997.37
2016-06-16T09:49:22.863Z,997.33
2016-06-16T09:50:22.849Z,997.37
2016-06-16T09:51:22.837Z,997.35
2016-06-16T09:52:22.840Z,997.31
2016-06-16T09:53:22.812Z,997.3
2016-06-16T09:54:22.798Z,997.3
2016-06-16T09:55:22.787Z,997.27
2016-06-16T09:56:22.774Z,997.26
2016-06-16T09:57:22.762Z,997.31
2016-06-16T09:58:22.749Z,997.26
2016-06-16T09:59:22.736Z,997.26
2016-06-16T10:00:22.724Z,997.26
2016-06-16T10:01:22.711Z,997.27
2016-06-16T10:02:22.699Z,997.21
2016-06-16T10:03:22.687Z,997.26
2016-06-16T10:04:22.674Z,997.28
2016-06-16T10:05:22.646Z,997.31
2016-06-16T10:06:22.633Z,997.34
2016-06-16T10:07:22.620Z,997.3
2016-06-16T10:08:22.608Z,997.32
2016-06-16T10:09:22.595Z,997.37
2016-06-16T10:10:22.598Z,997.36
2016-06-16T10:11:22.570Z,997.32
2016-06-16T10:12:22.558Z,997.35
2016-06-16T10:13:22.545Z,997.32
2016-06-16T10:14:22.533Z,997.36
2016-06-16T10:15:22.521Z,997.35
2016-06-16T10:16:22.507Z,997.37
2016-06-16T10:17:22.495Z,997.36
2016-06-16T10:18:22.497Z,997.38
2016-06-16T10:19:22.470Z,997.39
2016-06-16T10:20:22.458Z,997.41
2016-06-16T10:21:22.445Z,997.42
2016-06-16T10:22:22.448Z,997.42
2016-06-16T10:23:22.420Z,997.43
2016-06-16T10:24:22.391Z,997.43
2016-06-16T10:25:22.379Z,997.46
2016-06-16T10:26:22.363Z,997.47
2016-06-16T10:27:22.351Z,997.49
2016-06-16T10:28:22.339Z,997.48
2016-06-16T10:29:22.325Z,997.5
2016-06-16T10:30:22.314Z,997.46
2016-06-16T10:31:22.301Z,997.47
2016-06-16T10:32:22.288Z,997.45
2016-06-16T10:33:22.276Z,997.46
2016-06-16T10:34:22.263Z,997.5
2016-06-16T10:35:22.250Z,997.5
2016-06-16T10:36:22.238Z,997.46
2016-06-16T10:37:22.225Z,997.47
2016-06-16T10:38:22.197Z,997.47
2016-06-16T10:39:22.184Z,997.42
2016-06-16T10:40:22.187Z,997.39
2016-06-16T10:41:22.160Z,997.41
2016-06-16T10:42:22.162Z,997.36
2016-06-16T10:43:22.134Z,997.33
2016-06-16T10:44:22.137Z,997.37
2016-06-16T10:45:22.125Z,997.34
2016-06-16T10:46:22.097Z,997.33
2016-06-16T10:47:22.084Z,997.29
2016-06-16T10:48:22.072Z,997.32
2016-06-16T10:49:22.059Z,997.31
2016-06-16T10:50:22.047Z,997.31
2016-06-16T10:51:22.034Z,997.32
2016-06-16T10:52:22.006Z,997.3
2016-06-16T10:53:22.009Z,997.3
2016-06-16T10:54:21.980Z,997.33
2016-06-16T10:55:21.969Z,997.34
2016-06-16T10:56:21.955Z,997.34
2016-06-16T10:57:21.944Z,997.37
2016-06-16T10:58:21.931Z,997.28
2016-06-16T10:59:21.918Z,997.32
2016-06-16T11:00:21.905Z,997.29
2016-06-16T11:01:21.877Z,997.31
2016-06-16T11:02:21.865Z,997.3
2016-06-16T11:03:21.852Z,997.31
2016-06-16T11:04:21.841Z,997.35
2016-06-16T11:07:43.352Z,997.3
2016-06-16T11:09:43.311Z,997.33
2016-06-16T11:10:43.299Z,997.32
2016-06-16T11:11:43.286Z,997.29
2016-06-16T11:13:46.246Z,997.27
2016-06-16T11:14:46.218Z,997.28
2016-06-16T11:15:46.205Z,997.22
2016-06-16T11:16:46.192Z,997.24
2016-06-16T11:17:46.180Z,997.25
2016-06-16T11:18:46.167Z,997.23
2016-06-16T11:19:46.154Z,997.21
2016-06-16T11:20:46.143Z,997.19
2016-06-16T11:21:46.130Z,997.15
2016-06-16T11:22:46.118Z,997.16
2016-06-16T11:23:46.105Z,997.17
2016-06-16T11:24:46.092Z,997.15
2016-06-16T11:25:46.064Z,997.17
2016-06-16T11:26:46.050Z,997.16
2016-06-16T11:27:46.039Z,997.13
2016-06-16T11:28:46.026Z,997.15
2016-06-16T11:29:46.014Z,997.11
2016-06-16T11:30:46.001Z,997.13
2016-06-16T11:31:45.973Z,997.11
2016-06-16T11:32:45.976Z,997.1
2016-06-16T11:33:45.948Z,997.08
2016-06-16T11:34:45.935Z,997.08
2016-06-16T11:35:45.923Z,997.04
2016-06-16T11:36:45.911Z,997.01
2016-06-16T11:37:45.897Z,997.04
2016-06-16T11:38:45.884Z,997.09
2016-06-16T11:39:45.873Z,997.05
2016-06-16T11:40:45.844Z,997.02
2016-06-16T11:41:45.847Z,997.03
2016-06-16T11:42:45.819Z,997.03
2016-06-16T11:43:45.822Z,997.04
2016-06-16T11:44:45.794Z,997.04
2016-06-16T11:45:45.781Z,997.03
2016-06-16T11:46:45.770Z,997.02
2016-06-16T11:47:45.756Z,997
2016-06-16T11:48:45.743Z,996.97
2016-06-16T11:49:45.731Z,996.95
2016-06-16T11:50:45.906Z,996.92
2016-06-16T11:51:45.691Z,996.95
2016-06-16T11:52:45.694Z,996.91
2016-06-16T11:53:45.666Z,996.86
2016-06-16T11:54:45.653Z,996.89
2016-06-16T11:55:45.640Z,996.86
2016-06-16T11:56:45.628Z,996.84
2016-06-16T11:57:45.615Z,996.89
2016-06-16T11:58:45.947Z,996.86
2016-06-16T11:59:45.591Z,996.91
2016-06-16T12:00:45.577Z,996.86
2016-06-16T12:01:45.566Z,996.9
2016-06-16T12:02:45.553Z,996.88
2016-06-16T12:03:45.524Z,996.94
2016-06-16T12:04:45.528Z,996.93
2016-06-16T12:05:45.499Z,996.93
2016-06-16T12:06:45.940Z,996.92
2016-06-16T12:07:45.474Z,996.94
2016-06-16T12:08:45.462Z,996.92
2016-06-16T12:09:45.449Z,996.94
2016-06-16T12:10:45.436Z,996.92
2016-06-16T12:11:45.424Z,996.91
2016-06-16T12:12:45.411Z,996.86
2016-06-16T12:13:45.398Z,996.89
2016-06-16T12:14:45.934Z,996.86
2016-06-16T12:15:45.374Z,996.83
2016-06-16T12:16:45.361Z,996.84
2016-06-16T12:17:45.349Z,996.85
2016-06-16T12:18:45.336Z,996.86
2016-06-16T12:19:45.324Z,996.84
2016-06-16T12:20:45.311Z,996.85
2016-06-16T12:21:45.283Z,996.83
2016-06-16T12:22:45.973Z,996.86
2016-06-16T12:23:45.258Z,996.81
2016-06-16T12:24:45.246Z,996.84
2016-06-16T12:25:45.232Z,996.87
2016-06-16T12:26:45.220Z,996.84
2016-06-16T12:27:45.207Z,996.85
2016-06-16T12:28:45.195Z,996.82
2016-06-16T12:29:45.183Z,996.83
2016-06-16T12:30:45.217Z,996.84
2016-06-16T12:31:45.158Z,996.8
2016-06-16T12:32:45.145Z,996.81
2016-06-16T12:33:45.132Z,996.78
2016-06-16T12:34:45.120Z,996.8
2016-06-16T12:35:45.107Z,996.79
2016-06-16T12:36:45.094Z,996.78
2016-06-16T12:37:45.083Z,996.74
2016-06-16T12:38:46.117Z,996.75
2016-06-16T12:39:45.041Z,996.71
2016-06-16T12:40:45.045Z,996.72
2016-06-16T12:41:45.016Z,996.73
2016-06-16T12:42:45.003Z,996.72
2016-06-16T12:43:44.991Z,996.72
2016-06-16T12:44:44.978Z,996.71
2016-06-16T12:45:44.966Z,996.69
2016-06-16T12:46:46.172Z,996.72